sensor_id;sensor_type;location;lat;lon;timestamp;P1;durP1;ratioP1;P2;durP2;ratioP2
19084;SDS011;9675;51.538;6.728;2023-08-12T00:00:18;4.50;;;2.13;;
19084;SDS011;9675;51.538;6.728;2023-08-12T00:02:46;4.67;;;2.37;;
19084;SDS011;9675;51.538;6.728;2023-08-12T00:05:16;4.23;;;2.10;;
19084;SDS011;9675;51.538;6.728;2023-08-12T00:07:47;3.40;;;2.10;;
19084;SDS011;9675;51.538;6.728;2023-08-12T00:10:15;3.57;;;2.00;;
19084;SDS011;9675;51.538;6.728;2023-08-12T00:12:42;4.07;;;2.33;;
19084;SDS011;9675;51.538;6.728;2023-08-12T00:15:09;4.63;;;2.50;;
19084;SDS011;9675;51.538;6.728;2023-08-12T00:17:37;3.77;;;1.90;;
19084;SDS011;9675;51.538;6.728;2023-08-12T00:20:06;7.57;;;2.87;;
19084;SDS011;9675;51.538;6.728;2023-08-12T00:22:37;6.43;;;2.97;;
19084;SDS011;9675;51.538;6.728;2023-08-12T00:25:05;5.37;;;2.60;;
19084;SDS011;9675;51.538;6.728;2023-08-12T00:27:32;4.83;;;2.90;;
19084;SDS011;9675;51.538;6.728;2023-08-12T00:29:59;5.33;;;2.57;;
19084;SDS011;9675;51.538;6.728;2023-08-12T00:32:26;3.67;;;2.20;;
19084;SDS011;9675;51.538;6.728;2023-08-12T00:34:53;4.13;;;1.97;;
19084;SDS011;9675;51.538;6.728;2023-08-12T00:37:20;6.93;;;2.57;;
19084;SDS011;9675;51.538;6.728;2023-08-12T00:39:48;3.90;;;1.90;;
19084;SDS011;9675;51.538;6.728;2023-08-12T00:42:15;2.97;;;2.07;;
19084;SDS011;9675;51.538;6.728;2023-08-12T00:44:42;2.80;;;1.87;;
19084;SDS011;9675;51.538;6.728;2023-08-12T00:47:09;3.73;;;2.47;;
19084;SDS011;9675;51.538;6.728;2023-08-12T00:49:36;8.27;;;2.27;;
19084;SDS011;9675;51.538;6.728;2023-08-12T00:52:06;5.77;;;2.60;;
19084;SDS011;9675;51.538;6.728;2023-08-12T00:54:33;2.80;;;1.97;;
19084;SDS011;9675;51.538;6.728;2023-08-12T00:57:02;1.83;;;1.30;;
19084;SDS011;9675;51.538;6.728;2023-08-12T00:59:29;5.67;;;2.60;;
19084;SDS011;9675;51.538;6.728;2023-08-12T01:01:58;2.10;;;1.73;;
19084;SDS011;9675;51.538;6.728;2023-08-12T01:04:25;2.60;;;1.70;;
19084;SDS011;9675;51.538;6.728;2023-08-12T01:06:52;5.43;;;3.20;;
19084;SDS011;9675;51.538;6.728;2023-08-12T01:09:19;7.47;;;3.10;;
19084;SDS011;9675;51.538;6.728;2023-08-12T01:11:47;5.53;;;2.87;;
19084;SDS011;9675;51.538;6.728;2023-08-12T01:14:27;6.87;;;4.30;;
19084;SDS011;9675;51.538;6.728;2023-08-12T01:17:02;6.53;;;2.57;;
19084;SDS011;9675;51.538;6.728;2023-08-12T01:19:34;2.23;;;1.53;;
19084;SDS011;9675;51.538;6.728;2023-08-12T01:22:04;4.73;;;2.60;;
19084;SDS011;9675;51.538;6.728;2023-08-12T01:24:36;4.33;;;1.93;;
19084;SDS011;9675;51.538;6.728;2023-08-12T01:27:05;4.33;;;2.60;;
19084;SDS011;9675;51.538;6.728;2023-08-12T01:29:34;4.13;;;2.40;;
19084;SDS011;9675;51.538;6.728;2023-08-12T01:32:07;7.87;;;3.57;;
19084;SDS011;9675;51.538;6.728;2023-08-12T01:34:57;8.50;;;5.03;;
19084;SDS011;9675;51.538;6.728;2023-08-12T01:37:33;8.70;;;4.53;;
19084;SDS011;9675;51.538;6.728;2023-08-12T01:40:06;5.73;;;3.53;;
19084;SDS011;9675;51.538;6.728;2023-08-12T01:42:36;11.80;;;4.83;;
19084;SDS011;9675;51.538;6.728;2023-08-12T01:45:06;6.27;;;3.43;;
19084;SDS011;9675;51.538;6.728;2023-08-12T01:47:34;7.17;;;3.07;;
19084;SDS011;9675;51.538;6.728;2023-08-12T01:50:01;8.33;;;3.60;;
19084;SDS011;9675;51.538;6.728;2023-08-12T01:52:28;15.93;;;6.07;;
19084;SDS011;9675;51.538;6.728;2023-08-12T01:54:55;8.70;;;4.60;;
19084;SDS011;9675;51.538;6.728;2023-08-12T01:57:24;10.77;;;5.17;;
19084;SDS011;9675;51.538;6.728;2023-08-12T01:59:51;12.17;;;5.93;;
19084;SDS011;9675;51.538;6.728;2023-08-12T02:02:18;8.63;;;5.50;;
19084;SDS011;9675;51.538;6.728;2023-08-12T02:04:45;14.37;;;5.97;;
19084;SDS011;9675;51.538;6.728;2023-08-12T02:07:12;9.93;;;5.30;;
19084;SDS011;9675;51.538;6.728;2023-08-12T02:09:39;10.53;;;5.37;;
19084;SDS011;9675;51.538;6.728;2023-08-12T02:12:06;8.60;;;4.30;;
19084;SDS011;9675;51.538;6.728;2023-08-12T02:14:36;11.70;;;5.50;;
19084;SDS011;9675;51.538;6.728;2023-08-12T02:17:03;15.87;;;6.70;;
19084;SDS011;9675;51.538;6.728;2023-08-12T02:19:31;10.03;;;5.33;;
19084;SDS011;9675;51.538;6.728;2023-08-12T02:21:58;16.43;;;5.67;;
19084;SDS011;9675;51.538;6.728;2023-08-12T02:24:26;11.80;;;5.53;;
19084;SDS011;9675;51.538;6.728;2023-08-12T02:26:53;10.40;;;5.97;;
19084;SDS011;9675;51.538;6.728;2023-08-12T02:29:20;14.97;;;6.37;;
19084;SDS011;9675;51.538;6.728;2023-08-12T02:31:49;15.40;;;6.57;;
19084;SDS011;9675;51.538;6.728;2023-08-12T02:34:16;13.67;;;5.43;;
19084;SDS011;9675;51.538;6.728;2023-08-12T02:36:43;7.63;;;4.80;;
19084;SDS011;9675;51.538;6.728;2023-08-12T02:39:11;9.17;;;5.07;;
19084;SDS011;9675;51.538;6.728;2023-08-12T02:41:38;11.70;;;5.13;;
19084;SDS011;9675;51.538;6.728;2023-08-12T02:44:05;13.53;;;5.37;;
19084;SDS011;9675;51.538;6.728;2023-08-12T02:46:32;14.83;;;5.80;;
19084;SDS011;9675;51.538;6.728;2023-08-12T02:49:01;16.03;;;5.70;;
19084;SDS011;9675;51.538;6.728;2023-08-12T02:51:28;11.50;;;4.43;;
19084;SDS011;9675;51.538;6.728;2023-08-12T02:53:55;11.43;;;5.40;;
19084;SDS011;9675;51.538;6.728;2023-08-12T02:56:22;11.47;;;5.57;;
19084;SDS011;9675;51.538;6.728;2023-08-12T02:58:49;7.60;;;3.70;;
19084;SDS011;9675;51.538;6.728;2023-08-12T03:01:16;9.43;;;4.93;;
19084;SDS011;9675;51.538;6.728;2023-08-12T03:03:43;8.27;;;4.97;;
19084;SDS011;9675;51.538;6.728;2023-08-12T03:06:11;10.43;;;4.93;;
19084;SDS011;9675;51.538;6.728;2023-08-12T03:08:38;9.17;;;4.97;;
19084;SDS011;9675;51.538;6.728;2023-08-12T03:11:05;8.03;;;4.60;;
19084;SDS011;9675;51.538;6.728;2023-08-12T03:13:32;8.03;;;4.17;;
19084;SDS011;9675;51.538;6.728;2023-08-12T03:15:59;8.70;;;4.77;;
19084;SDS011;9675;51.538;6.728;2023-08-12T03:18:26;10.30;;;5.03;;
19084;SDS011;9675;51.538;6.728;2023-08-12T03:20:53;7.47;;;4.17;;
19084;SDS011;9675;51.538;6.728;2023-08-12T03:23:22;6.13;;;3.07;;
19084;SDS011;9675;51.538;6.728;2023-08-12T03:25:49;9.03;;;4.77;;
19084;SDS011;9675;51.538;6.728;2023-08-12T03:28:16;7.63;;;4.03;;
19084;SDS011;9675;51.538;6.728;2023-08-12T03:30:49;7.57;;;4.13;;
19084;SDS011;9675;51.538;6.728;2023-08-12T03:33:17;9.60;;;3.93;;
19084;SDS011;9675;51.538;6.728;2023-08-12T03:35:44;6.97;;;3.03;;
19084;SDS011;9675;51.538;6.728;2023-08-12T03:38:12;4.90;;;2.90;;
19084;SDS011;9675;51.538;6.728;2023-08-12T03:40:41;4.90;;;2.47;;
19084;SDS011;9675;51.538;6.728;2023-08-12T03:43:08;4.77;;;2.70;;
19084;SDS011;9675;51.538;6.728;2023-08-12T03:45:39;6.70;;;2.87;;
19084;SDS011;9675;51.538;6.728;2023-08-12T03:48:07;4.27;;;2.90;;
19084;SDS011;9675;51.538;6.728;2023-08-12T03:50:34;4.67;;;2.97;;
19084;SDS011;9675;51.538;6.728;2023-08-12T03:53:03;12.07;;;5.27;;
19084;SDS011;9675;51.538;6.728;2023-08-12T03:55:31;10.43;;;5.40;;
19084;SDS011;9675;51.538;6.728;2023-08-12T03:57:59;13.67;;;5.60;;
19084;SDS011;9675;51.538;6.728;2023-08-12T04:00:27;10.93;;;5.10;;
19084;SDS011;9675;51.538;6.728;2023-08-12T04:02:54;11.10;;;5.37;;
19084;SDS011;9675;51.538;6.728;2023-08-12T04:05:21;13.90;;;6.13;;
19084;SDS011;9675;51.538;6.728;2023-08-12T04:07:49;13.20;;;6.50;;
19084;SDS011;9675;51.538;6.728;2023-08-12T04:10:16;11.63;;;5.90;;
19084;SDS011;9675;51.538;6.728;2023-08-12T04:12:43;7.23;;;4.30;;
19084;SDS011;9675;51.538;6.728;2023-08-12T04:15:11;10.87;;;5.80;;
19084;SDS011;9675;51.538;6.728;2023-08-12T04:17:38;16.93;;;7.40;;
19084;SDS011;9675;51.538;6.728;2023-08-12T04:20:06;12.83;;;6.27;;
19084;SDS011;9675;51.538;6.728;2023-08-12T04:22:34;16.53;;;6.77;;
19084;SDS011;9675;51.538;6.728;2023-08-12T04:25:01;17.20;;;8.57;;
19084;SDS011;9675;51.538;6.728;2023-08-12T04:27:29;18.10;;;7.77;;
19084;SDS011;9675;51.538;6.728;2023-08-12T04:29:56;10.73;;;5.27;;
19084;SDS011;9675;51.538;6.728;2023-08-12T04:32:24;18.83;;;7.80;;
19084;SDS011;9675;51.538;6.728;2023-08-12T04:34:51;17.90;;;7.40;;
19084;SDS011;9675;51.538;6.728;2023-08-12T04:37:18;15.77;;;7.63;;
19084;SDS011;9675;51.538;6.728;2023-08-12T04:39:45;15.53;;;5.73;;
19084;SDS011;9675;51.538;6.728;2023-08-12T04:42:12;17.20;;;7.70;;
19084;SDS011;9675;51.538;6.728;2023-08-12T04:44:39;19.67;;;9.13;;
19084;SDS011;9675;51.538;6.728;2023-08-12T04:47:06;17.47;;;7.70;;
19084;SDS011;9675;51.538;6.728;2023-08-12T04:49:35;19.57;;;8.40;;
19084;SDS011;9675;51.538;6.728;2023-08-12T04:52:02;20.90;;;9.13;;
19084;SDS011;9675;51.538;6.728;2023-08-12T04:54:29;25.07;;;9.73;;
19084;SDS011;9675;51.538;6.728;2023-08-12T04:56:56;16.57;;;7.53;;
19084;SDS011;9675;51.538;6.728;2023-08-12T04:59:24;19.97;;;8.87;;
19084;SDS011;9675;51.538;6.728;2023-08-12T05:01:51;16.00;;;7.93;;
19084;SDS011;9675;51.538;6.728;2023-08-12T05:04:18;18.37;;;9.77;;
19084;SDS011;9675;51.538;6.728;2023-08-12T05:06:46;22.07;;;8.80;;
19084;SDS011;9675;51.538;6.728;2023-08-12T05:09:14;18.23;;;9.97;;
19084;SDS011;9675;51.538;6.728;2023-08-12T05:11:41;22.37;;;9.73;;
19084;SDS011;9675;51.538;6.728;2023-08-12T05:14:08;19.23;;;8.60;;
19084;SDS011;9675;51.538;6.728;2023-08-12T05:16:35;16.90;;;8.50;;
19084;SDS011;9675;51.538;6.728;2023-08-12T05:19:02;13.97;;;7.93;;
19084;SDS011;9675;51.538;6.728;2023-08-12T05:21:29;14.07;;;7.23;;
19084;SDS011;9675;51.538;6.728;2023-08-12T05:23:57;16.83;;;8.50;;
19084;SDS011;9675;51.538;6.728;2023-08-12T05:26:24;14.87;;;7.33;;
19084;SDS011;9675;51.538;6.728;2023-08-12T05:28:51;16.83;;;7.73;;
19084;SDS011;9675;51.538;6.728;2023-08-12T05:31:18;13.97;;;7.93;;
19084;SDS011;9675;51.538;6.728;2023-08-12T05:33:45;14.10;;;7.50;;
19084;SDS011;9675;51.538;6.728;2023-08-12T05:36:12;14.20;;;7.33;;
19084;SDS011;9675;51.538;6.728;2023-08-12T05:38:39;14.57;;;7.30;;
19084;SDS011;9675;51.538;6.728;2023-08-12T05:41:07;12.00;;;6.87;;
19084;SDS011;9675;51.538;6.728;2023-08-12T05:43:34;16.07;;;6.83;;
19084;SDS011;9675;51.538;6.728;2023-08-12T05:46:01;12.83;;;6.83;;
19084;SDS011;9675;51.538;6.728;2023-08-12T05:48:28;12.37;;;6.27;;
19084;SDS011;9675;51.538;6.728;2023-08-12T05:50:55;12.53;;;6.63;;
19084;SDS011;9675;51.538;6.728;2023-08-12T05:53:22;17.00;;;6.93;;
19084;SDS011;9675;51.538;6.728;2023-08-12T05:55:49;12.17;;;7.00;;
19084;SDS011;9675;51.538;6.728;2023-08-12T05:58:18;12.63;;;6.07;;
19084;SDS011;9675;51.538;6.728;2023-08-12T06:00:45;10.70;;;5.70;;
19084;SDS011;9675;51.538;6.728;2023-08-12T06:03:12;12.77;;;5.87;;
19084;SDS011;9675;51.538;6.728;2023-08-12T06:05:40;9.10;;;5.20;;
19084;SDS011;9675;51.538;6.728;2023-08-12T06:08:08;14.27;;;6.37;;
19084;SDS011;9675;51.538;6.728;2023-08-12T06:10:35;11.57;;;5.83;;
19084;SDS011;9675;51.538;6.728;2023-08-12T06:13:03;15.53;;;6.40;;
19084;SDS011;9675;51.538;6.728;2023-08-12T06:15:32;7.90;;;4.60;;
19084;SDS011;9675;51.538;6.728;2023-08-12T06:17:59;17.03;;;6.17;;
19084;SDS011;9675;51.538;6.728;2023-08-12T06:20:27;16.47;;;6.27;;
19084;SDS011;9675;51.538;6.728;2023-08-12T06:22:54;21.10;;;8.37;;
19084;SDS011;9675;51.538;6.728;2023-08-12T06:25:21;23.67;;;10.10;;
19084;SDS011;9675;51.538;6.728;2023-08-12T06:27:49;22.17;;;8.63;;
19084;SDS011;9675;51.538;6.728;2023-08-12T06:30:16;16.40;;;7.53;;
19084;SDS011;9675;51.538;6.728;2023-08-12T06:32:44;13.83;;;7.37;;
19084;SDS011;9675;51.538;6.728;2023-08-12T06:35:11;14.03;;;7.00;;
19084;SDS011;9675;51.538;6.728;2023-08-12T06:37:38;11.53;;;6.70;;
19084;SDS011;9675;51.538;6.728;2023-08-12T06:40:06;13.53;;;6.97;;
19084;SDS011;9675;51.538;6.728;2023-08-12T06:42:34;15.63;;;7.50;;
19084;SDS011;9675;51.538;6.728;2023-08-12T06:45:01;15.13;;;7.00;;
19084;SDS011;9675;51.538;6.728;2023-08-12T06:47:29;12.23;;;6.70;;
19084;SDS011;9675;51.538;6.728;2023-08-12T06:49:57;9.53;;;6.17;;
19084;SDS011;9675;51.538;6.728;2023-08-12T06:52:24;18.17;;;7.30;;
19084;SDS011;9675;51.538;6.728;2023-08-12T06:54:51;12.33;;;6.70;;
19084;SDS011;9675;51.538;6.728;2023-08-12T06:57:18;12.70;;;7.27;;
19084;SDS011;9675;51.538;6.728;2023-08-12T06:59:45;12.53;;;7.70;;
19084;SDS011;9675;51.538;6.728;2023-08-12T07:02:12;13.67;;;6.97;;
19084;SDS011;9675;51.538;6.728;2023-08-12T07:04:39;8.67;;;6.07;;
19084;SDS011;9675;51.538;6.728;2023-08-12T07:07:07;10.60;;;5.53;;
19084;SDS011;9675;51.538;6.728;2023-08-12T07:09:35;20.97;;;6.83;;
19084;SDS011;9675;51.538;6.728;2023-08-12T07:12:02;13.07;;;6.73;;
19084;SDS011;9675;51.538;6.728;2023-08-12T07:14:29;13.20;;;7.27;;
19084;SDS011;9675;51.538;6.728;2023-08-12T07:16:57;15.00;;;8.10;;
19084;SDS011;9675;51.538;6.728;2023-08-12T07:19:24;12.77;;;6.43;;
19084;SDS011;9675;51.538;6.728;2023-08-12T07:21:51;12.77;;;8.50;;
19084;SDS011;9675;51.538;6.728;2023-08-12T07:24:19;14.37;;;8.00;;
19084;SDS011;9675;51.538;6.728;2023-08-12T07:26:46;14.87;;;7.57;;
19084;SDS011;9675;51.538;6.728;2023-08-12T07:29:13;12.27;;;7.90;;
19084;SDS011;9675;51.538;6.728;2023-08-12T07:31:40;12.00;;;7.83;;
19084;SDS011;9675;51.538;6.728;2023-08-12T07:34:07;9.97;;;6.13;;
19084;SDS011;9675;51.538;6.728;2023-08-12T07:36:38;9.70;;;6.70;;
19084;SDS011;9675;51.538;6.728;2023-08-12T07:39:05;11.80;;;6.90;;
19084;SDS011;9675;51.538;6.728;2023-08-12T07:41:34;13.70;;;6.80;;
19084;SDS011;9675;51.538;6.728;2023-08-12T07:44:01;12.10;;;6.47;;
19084;SDS011;9675;51.538;6.728;2023-08-12T07:46:28;9.80;;;6.10;;
19084;SDS011;9675;51.538;6.728;2023-08-12T07:48:55;10.83;;;6.23;;
19084;SDS011;9675;51.538;6.728;2023-08-12T07:51:23;9.13;;;6.03;;
19084;SDS011;9675;51.538;6.728;2023-08-12T07:53:50;9.20;;;6.00;;
19084;SDS011;9675;51.538;6.728;2023-08-12T07:56:17;10.97;;;6.33;;
19084;SDS011;9675;51.538;6.728;2023-08-12T07:58:45;9.37;;;6.73;;
19084;SDS011;9675;51.538;6.728;2023-08-12T08:01:12;11.93;;;6.40;;
19084;SDS011;9675;51.538;6.728;2023-08-12T08:03:39;12.07;;;6.27;;
19084;SDS011;9675;51.538;6.728;2023-08-12T08:06:07;8.13;;;5.33;;
19084;SDS011;9675;51.538;6.728;2023-08-12T08:08:33;10.40;;;6.47;;
19084;SDS011;9675;51.538;6.728;2023-08-12T08:11:00;14.03;;;5.10;;
19084;SDS011;9675;51.538;6.728;2023-08-12T08:13:27;10.60;;;5.47;;
19084;SDS011;9675;51.538;6.728;2023-08-12T08:15:56;10.63;;;5.13;;
19084;SDS011;9675;51.538;6.728;2023-08-12T08:18:23;9.60;;;5.63;;
19084;SDS011;9675;51.538;6.728;2023-08-12T08:20:50;8.67;;;4.87;;
19084;SDS011;9675;51.538;6.728;2023-08-12T08:23:17;6.40;;;4.47;;
19084;SDS011;9675;51.538;6.728;2023-08-12T08:25:44;6.60;;;4.20;;
19084;SDS011;9675;51.538;6.728;2023-08-12T08:28:12;4.50;;;3.30;;
19084;SDS011;9675;51.538;6.728;2023-08-12T08:30:39;6.90;;;3.50;;
19084;SDS011;9675;51.538;6.728;2023-08-12T08:33:07;5.93;;;3.70;;
19084;SDS011;9675;51.538;6.728;2023-08-12T08:35:35;7.50;;;3.37;;
19084;SDS011;9675;51.538;6.728;2023-08-12T08:38:02;9.50;;;3.40;;
19084;SDS011;9675;51.538;6.728;2023-08-12T08:40:29;5.03;;;2.70;;
19084;SDS011;9675;51.538;6.728;2023-08-12T08:42:57;5.03;;;2.53;;
19084;SDS011;9675;51.538;6.728;2023-08-12T08:45:29;4.63;;;2.90;;
19084;SDS011;9675;51.538;6.728;2023-08-12T08:47:59;5.80;;;2.43;;
19084;SDS011;9675;51.538;6.728;2023-08-12T08:50:29;2.80;;;2.30;;
19084;SDS011;9675;51.538;6.728;2023-08-12T08:52:57;3.40;;;2.10;;
19084;SDS011;9675;51.538;6.728;2023-08-12T08:55:28;3.47;;;2.87;;
19084;SDS011;9675;51.538;6.728;2023-08-12T08:57:55;4.23;;;2.73;;
19084;SDS011;9675;51.538;6.728;2023-08-12T09:00:23;3.53;;;2.07;;
19084;SDS011;9675;51.538;6.728;2023-08-12T09:02:51;3.40;;;2.40;;
19084;SDS011;9675;51.538;6.728;2023-08-12T09:05:21;2.93;;;2.00;;
19084;SDS011;9675;51.538;6.728;2023-08-12T09:07:50;4.97;;;2.13;;
19084;SDS011;9675;51.538;6.728;2023-08-12T09:10:20;3.00;;;2.40;;
19084;SDS011;9675;51.538;6.728;2023-08-12T09:12:50;4.43;;;2.40;;
19084;SDS011;9675;51.538;6.728;2023-08-12T09:15:18;3.33;;;2.50;;
19084;SDS011;9675;51.538;6.728;2023-08-12T09:17:45;4.93;;;2.20;;
19084;SDS011;9675;51.538;6.728;2023-08-12T09:20:12;4.73;;;2.40;;
19084;SDS011;9675;51.538;6.728;2023-08-12T09:22:41;3.83;;;1.63;;
19084;SDS011;9675;51.538;6.728;2023-08-12T09:25:10;4.70;;;1.87;;
19084;SDS011;9675;51.538;6.728;2023-08-12T09:27:38;3.07;;;2.30;;
19084;SDS011;9675;51.538;6.728;2023-08-12T09:30:06;2.80;;;1.90;;
19084;SDS011;9675;51.538;6.728;2023-08-12T09:32:34;2.70;;;2.03;;
19084;SDS011;9675;51.538;6.728;2023-08-12T09:35:03;2.93;;;1.80;;
19084;SDS011;9675;51.538;6.728;2023-08-12T09:37:31;2.50;;;1.47;;
19084;SDS011;9675;51.538;6.728;2023-08-12T09:39:59;2.90;;;1.87;;
19084;SDS011;9675;51.538;6.728;2023-08-12T09:42:31;2.60;;;1.60;;
19084;SDS011;9675;51.538;6.728;2023-08-12T09:44:59;1.70;;;1.23;;
19084;SDS011;9675;51.538;6.728;2023-08-12T09:47:27;3.37;;;1.20;;
19084;SDS011;9675;51.538;6.728;2023-08-12T09:49:54;1.70;;;1.20;;
19084;SDS011;9675;51.538;6.728;2023-08-12T09:52:21;5.90;;;1.20;;
19084;SDS011;9675;51.538;6.728;2023-08-12T09:54:48;1.43;;;1.10;;
19084;SDS011;9675;51.538;6.728;2023-08-12T09:57:21;2.57;;;1.37;;
19084;SDS011;9675;51.538;6.728;2023-08-12T09:59:53;1.93;;;1.30;;
19084;SDS011;9675;51.538;6.728;2023-08-12T10:02:23;2.50;;;1.43;;
19084;SDS011;9675;51.538;6.728;2023-08-12T10:04:52;1.57;;;1.40;;
19084;SDS011;9675;51.538;6.728;2023-08-12T10:07:23;1.60;;;1.17;;
19084;SDS011;9675;51.538;6.728;2023-08-12T10:09:52;1.33;;;1.20;;
19084;SDS011;9675;51.538;6.728;2023-08-12T10:12:22;1.70;;;1.57;;
19084;SDS011;9675;51.538;6.728;2023-08-12T10:14:51;1.27;;;0.90;;
19084;SDS011;9675;51.538;6.728;2023-08-12T10:17:19;2.57;;;1.40;;
19084;SDS011;9675;51.538;6.728;2023-08-12T10:19:47;2.23;;;1.43;;
19084;SDS011;9675;51.538;6.728;2023-08-12T10:22:22;2.77;;;1.30;;
19084;SDS011;9675;51.538;6.728;2023-08-12T10:24:52;2.53;;;1.13;;
19084;SDS011;9675;51.538;6.728;2023-08-12T10:27:19;4.27;;;1.27;;
19084;SDS011;9675;51.538;6.728;2023-08-12T10:29:46;3.33;;;1.20;;
19084;SDS011;9675;51.538;6.728;2023-08-12T10:32:15;1.57;;;1.20;;
19084;SDS011;9675;51.538;6.728;2023-08-12T10:34:43;1.97;;;1.30;;
19084;SDS011;9675;51.538;6.728;2023-08-12T10:37:11;1.80;;;1.07;;
19084;SDS011;9675;51.538;6.728;2023-08-12T10:39:39;2.47;;;1.27;;
19084;SDS011;9675;51.538;6.728;2023-08-12T10:42:06;1.40;;;1.20;;
19084;SDS011;9675;51.538;6.728;2023-08-12T10:44:49;3.17;;;1.10;;
19084;SDS011;9675;51.538;6.728;2023-08-12T10:47:19;3.03;;;1.20;;
19084;SDS011;9675;51.538;6.728;2023-08-12T10:49:47;3.27;;;1.47;;
19084;SDS011;9675;51.538;6.728;2023-08-12T10:52:20;1.40;;;1.20;;
19084;SDS011;9675;51.538;6.728;2023-08-12T10:54:54;1.60;;;1.50;;
19084;SDS011;9675;51.538;6.728;2023-08-12T10:57:41;2.57;;;1.57;;
19084;SDS011;9675;51.538;6.728;2023-08-12T11:00:10;1.07;;;1.03;;
19084;SDS011;9675;51.538;6.728;2023-08-12T11:02:45;1.70;;;1.30;;
19084;SDS011;9675;51.538;6.728;2023-08-12T11:05:16;2.80;;;1.63;;
19084;SDS011;9675;51.538;6.728;2023-08-12T11:07:45;1.80;;;1.47;;
19084;SDS011;9675;51.538;6.728;2023-08-12T11:10:15;1.83;;;1.30;;
19084;SDS011;9675;51.538;6.728;2023-08-12T11:12:47;1.20;;;1.07;;
19084;SDS011;9675;51.538;6.728;2023-08-12T11:15:28;1.30;;;0.80;;
19084;SDS011;9675;51.538;6.728;2023-08-12T11:17:59;1.40;;;0.83;;
19084;SDS011;9675;51.538;6.728;2023-08-12T11:20:31;0.77;;;0.73;;
19084;SDS011;9675;51.538;6.728;2023-08-12T11:22:59;2.03;;;1.10;;
19084;SDS011;9675;51.538;6.728;2023-08-12T11:25:28;1.03;;;0.93;;
19084;SDS011;9675;51.538;6.728;2023-08-12T11:27:56;1.93;;;1.17;;
19084;SDS011;9675;51.538;6.728;2023-08-12T11:30:24;1.47;;;1.30;;
19084;SDS011;9675;51.538;6.728;2023-08-12T11:32:53;1.40;;;1.10;;
19084;SDS011;9675;51.538;6.728;2023-08-12T11:35:23;1.97;;;1.40;;
19084;SDS011;9675;51.538;6.728;2023-08-12T11:37:52;2.00;;;1.50;;
19084;SDS011;9675;51.538;6.728;2023-08-12T11:40:23;1.70;;;1.60;;
19084;SDS011;9675;51.538;6.728;2023-08-12T11:42:53;2.10;;;1.70;;
19084;SDS011;9675;51.538;6.728;2023-08-12T11:45:21;2.63;;;1.77;;
19084;SDS011;9675;51.538;6.728;2023-08-12T11:47:53;5.23;;;2.00;;
19084;SDS011;9675;51.538;6.728;2023-08-12T11:50:22;3.63;;;2.10;;
19084;SDS011;9675;51.538;6.728;2023-08-12T11:52:53;2.23;;;1.83;;
19084;SDS011;9675;51.538;6.728;2023-08-12T11:55:22;2.90;;;2.27;;
19084;SDS011;9675;51.538;6.728;2023-08-12T11:57:50;2.27;;;1.90;;
19084;SDS011;9675;51.538;6.728;2023-08-12T12:00:17;2.67;;;2.17;;
19084;SDS011;9675;51.538;6.728;2023-08-12T12:02:46;3.17;;;2.43;;
19084;SDS011;9675;51.538;6.728;2023-08-12T12:05:15;3.50;;;2.90;;
19084;SDS011;9675;51.538;6.728;2023-08-12T12:07:45;3.70;;;2.73;;
19084;SDS011;9675;51.538;6.728;2023-08-12T12:10:16;6.87;;;3.43;;
19084;SDS011;9675;51.538;6.728;2023-08-12T12:12:45;6.33;;;3.63;;
19084;SDS011;9675;51.538;6.728;2023-08-12T12:15:12;6.37;;;4.30;;
19084;SDS011;9675;51.538;6.728;2023-08-12T12:17:41;6.30;;;4.20;;
19084;SDS011;9675;51.538;6.728;2023-08-12T12:20:08;5.83;;;4.17;;
19084;SDS011;9675;51.538;6.728;2023-08-12T12:22:37;10.97;;;4.77;;
19084;SDS011;9675;51.538;6.728;2023-08-12T12:25:09;7.27;;;4.57;;
19084;SDS011;9675;51.538;6.728;2023-08-12T12:27:39;5.97;;;3.90;;
19084;SDS011;9675;51.538;6.728;2023-08-12T12:30:08;7.37;;;4.30;;
19084;SDS011;9675;51.538;6.728;2023-08-12T12:32:38;4.57;;;3.37;;
19084;SDS011;9675;51.538;6.728;2023-08-12T12:35:06;6.13;;;3.77;;
19084;SDS011;9675;51.538;6.728;2023-08-12T12:37:35;4.17;;;3.00;;
19084;SDS011;9675;51.538;6.728;2023-08-12T12:40:03;4.73;;;3.03;;
19084;SDS011;9675;51.538;6.728;2023-08-12T12:42:34;5.20;;;3.73;;
19084;SDS011;9675;51.538;6.728;2023-08-12T12:45:03;6.57;;;2.97;;
19084;SDS011;9675;51.538;6.728;2023-08-12T12:47:32;3.77;;;3.07;;
19084;SDS011;9675;51.538;6.728;2023-08-12T12:50:00;4.10;;;2.87;;
19084;SDS011;9675;51.538;6.728;2023-08-12T12:52:27;5.77;;;3.63;;
19084;SDS011;9675;51.538;6.728;2023-08-12T12:54:54;3.40;;;2.70;;
19084;SDS011;9675;51.538;6.728;2023-08-12T12:57:22;4.47;;;3.60;;
19084;SDS011;9675;51.538;6.728;2023-08-12T12:59:51;3.83;;;3.17;;
19084;SDS011;9675;51.538;6.728;2023-08-12T13:02:18;6.53;;;2.77;;
19084;SDS011;9675;51.538;6.728;2023-08-12T13:04:45;2.93;;;2.63;;
19084;SDS011;9675;51.538;6.728;2023-08-12T13:07:14;4.53;;;3.80;;
19084;SDS011;9675;51.538;6.728;2023-08-12T13:09:41;6.27;;;3.10;;
19084;SDS011;9675;51.538;6.728;2023-08-12T13:12:08;2.90;;;2.20;;
19084;SDS011;9675;51.538;6.728;2023-08-12T13:14:35;3.63;;;2.47;;
19084;SDS011;9675;51.538;6.728;2023-08-12T13:17:04;2.90;;;2.57;;
19084;SDS011;9675;51.538;6.728;2023-08-12T13:19:30;3.50;;;2.70;;
19084;SDS011;9675;51.538;6.728;2023-08-12T13:21:58;3.53;;;2.60;;
19084;SDS011;9675;51.538;6.728;2023-08-12T13:24:27;4.33;;;2.77;;
19084;SDS011;9675;51.538;6.728;2023-08-12T13:26:54;2.50;;;2.10;;
19084;SDS011;9675;51.538;6.728;2023-08-12T13:29:21;2.07;;;1.87;;
19084;SDS011;9675;51.538;6.728;2023-08-12T13:31:48;2.00;;;1.77;;
19084;SDS011;9675;51.538;6.728;2023-08-12T13:34:17;2.03;;;1.83;;
19084;SDS011;9675;51.538;6.728;2023-08-12T13:36:44;2.47;;;1.90;;
19084;SDS011;9675;51.538;6.728;2023-08-12T13:39:11;3.03;;;1.50;;
19084;SDS011;9675;51.538;6.728;2023-08-12T13:41:38;1.33;;;1.07;;
19084;SDS011;9675;51.538;6.728;2023-08-12T13:44:05;1.70;;;1.40;;
19084;SDS011;9675;51.538;6.728;2023-08-12T13:46:33;1.60;;;1.50;;
19084;SDS011;9675;51.538;6.728;2023-08-12T13:48:59;3.17;;;1.70;;
19084;SDS011;9675;51.538;6.728;2023-08-12T13:51:28;1.93;;;1.60;;
19084;SDS011;9675;51.538;6.728;2023-08-12T13:53:57;1.80;;;1.70;;
19084;SDS011;9675;51.538;6.728;2023-08-12T13:56:24;2.17;;;1.67;;
19084;SDS011;9675;51.538;6.728;2023-08-12T13:58:51;1.70;;;1.33;;
19084;SDS011;9675;51.538;6.728;2023-08-12T14:01:18;1.93;;;1.23;;
19084;SDS011;9675;51.538;6.728;2023-08-12T14:03:46;1.63;;;1.10;;
19084;SDS011;9675;51.538;6.728;2023-08-12T14:06:13;1.37;;;1.17;;
19084;SDS011;9675;51.538;6.728;2023-08-12T14:08:41;2.03;;;1.00;;
19084;SDS011;9675;51.538;6.728;2023-08-12T14:11:08;2.93;;;1.53;;
19084;SDS011;9675;51.538;6.728;2023-08-12T14:13:35;3.90;;;1.20;;
19084;SDS011;9675;51.538;6.728;2023-08-12T14:16:02;1.30;;;0.97;;
19084;SDS011;9675;51.538;6.728;2023-08-12T14:18:30;1.30;;;1.20;;
19084;SDS011;9675;51.538;6.728;2023-08-12T14:20:57;1.23;;;1.03;;
19084;SDS011;9675;51.538;6.728;2023-08-12T14:23:24;0.70;;;0.70;;
19084;SDS011;9675;51.538;6.728;2023-08-12T14:25:52;2.63;;;1.00;;
19084;SDS011;9675;51.538;6.728;2023-08-12T14:28:19;1.93;;;1.30;;
19084;SDS011;9675;51.538;6.728;2023-08-12T14:30:46;4.67;;;1.30;;
19084;SDS011;9675;51.538;6.728;2023-08-12T14:33:13;2.60;;;0.80;;
19084;SDS011;9675;51.538;6.728;2023-08-12T14:35:40;2.43;;;0.80;;
19084;SDS011;9675;51.538;6.728;2023-08-12T14:38:07;0.60;;;0.43;;
19084;SDS011;9675;51.538;6.728;2023-08-12T14:40:34;0.87;;;0.67;;
19084;SDS011;9675;51.538;6.728;2023-08-12T14:43:03;0.60;;;0.57;;
19084;SDS011;9675;51.538;6.728;2023-08-12T14:45:30;1.23;;;0.83;;
19084;SDS011;9675;51.538;6.728;2023-08-12T14:47:57;15.17;;;6.53;;
19084;SDS011;9675;51.538;6.728;2023-08-12T14:50:24;3.03;;;1.23;;
19084;SDS011;9675;51.538;6.728;2023-08-12T14:52:51;2.60;;;1.60;;
19084;SDS011;9675;51.538;6.728;2023-08-12T14:55:18;7.07;;;4.23;;
19084;SDS011;9675;51.538;6.728;2023-08-12T14:57:45;6.03;;;3.20;;
19084;SDS011;9675;51.538;6.728;2023-08-12T15:00:15;5.00;;;1.57;;
19084;SDS011;9675;51.538;6.728;2023-08-12T15:02:42;3.17;;;2.13;;